Mount Healthy, Ohio
Current Conditions -  °F | °C
As of 2:53 PM on Wednesday 17 Dec 2014 (Local Time) from KHAO Reporting Station
Overcast Overcast  
Wind Chill: 23°   Ceiling: 2000
Heat Index: 31°   Visibility: 10mi
Dew Point: 24°   Wind: 8mph
Humidity: 76%   Direction: 290°WNW
Pressure: 30.22"   Gusts: NA
Location:  39.246°N, 84.538°W
Report Text: KHAO 171953Z AUTO 29007KT 10SM OVC020 M01/M04 A3022 RMK AO2 SLP239 T10061044
Loading
Personal Weather Stations






























Interactive Weather Map New forecast layout! Learn more

10-Day Weather Forecast

Advertisements
Track Severe Weather on mobile